This is the latest recevied weather packets stored in our database for station/object E24BD-10. If no packets are shown the sender has not sent any weather packets the latest 1 day(s).
| Time | Temp. | Humidity | Pressure | Rain* | Wind** | Luminosity | Snow |
|---|---|---|---|---|---|---|---|
| 1778013603 | 33.89° C | 60% | 997 hPa | - | 0 m/s | 0 W/m² | - |
| 1778012678 | 33.89° C | 60% | 997 hPa | - | 0 m/s | 0 W/m² | - |
| 1778011754 | 33.89° C | 60% | 997 hPa | - | 0 m/s | 0 W/m² | - |
| 1778010829 | 33.89° C | 60% | 997 hPa | - | 0 m/s | 0 W/m² | - |
| 1778009905 | 33.89° C | 60% | 997 hPa | - | 0 m/s | 0 W/m² | - |
| 1778008981 | 33.89° C | 60% | 997 hPa | - | 0 m/s | 0 W/m² | - |
| 1778008056 | 33.89° C | 60% | 997 hPa | - | 0 m/s | 0 W/m² | - |
| 1778007132 | 33.89° C | 59% | 997 hPa | - | 0 m/s | 0 W/m² | - |
| 1778006208 | 33.89° C | 59% | 997 hPa | - | 0 m/s | 0 W/m² | - |
| 1778005283 | 33.89° C | 59% | 997 hPa | - | 0 m/s | 0 W/m² | - |
| 1778004358 | 33.89° C | 60% | 997 hPa | - | 0 m/s | 0 W/m² | - |
| 1778003434 | 33.89° C | 59% | 997 hPa | - | 0 m/s | 0 W/m² | - |
| 1778002509 | 33.89° C | 59% | 998 hPa | - | 0 m/s | 0 W/m² | - |
| 1778001585 | 33.89° C | 60% | 998 hPa | - | 0 m/s | 0 W/m² | - |
| 1778000661 | 33.89° C | 60% | 998 hPa | - | 0 m/s | 0 W/m² | - |
| 1777999736 | 33.89° C | 60% | 998 hPa | - | 0 m/s | 0 W/m² | - |
| 1777998811 | 33.89° C | 60% | 998 hPa | - | 0 m/s | 0 W/m² | - |
| 1777997887 | 33.33° C | 61% | 999 hPa | - | 0 m/s | 0 W/m² | - |
| 1777996962 | 32.78° C | 63% | 999 hPa | - | 0 m/s | 0 W/m² | - |
| 1777996038 | 32.78° C | 63% | 999 hPa | - | 0 m/s | 0 W/m² | - |
| 1777995114 | 33.33° C | 61% | 999 hPa | - | 0 m/s | 0 W/m² | - |
| 1777994189 | 33.89° C | 59% | 999 hPa | - | 0 m/s | 0 W/m² | - |
| 1777993265 | 33.33° C | 60% | 999 hPa | - | 0 m/s | 0 W/m² | - |
| 1777992341 | 34.44° C | 56% | 999 hPa | - | 0 m/s | 0 W/m² | - |
| 1777991416 | 34.44° C | 57% | 998 hPa | - | 0 m/s | 0 W/m² | - |
* Rain since midnight (hover to see other rain measurements)
** Current wind speed in m/s (hover to see current wind gust speed)